Wednesday, July 30, 2014
23:22 UTC
  |  Log In   |  Register Free
Airport Search:

Hillsboro Municipal Airport
(KINJ)

Hillsboro Municipal Airport Diagram
No Airport Diagram Available

FAA data valid effective July 24, 2014 until September 18, 2014 (unless otherwise noted).

 
 
 
 
 
 
 
 
 
 
 
 
 
 

Current Aviation Weather for Hillsboro Municipal Airport (KINJ)

The most recent METAR observation for KINJ was updated at: 1835 UTC
METAR Summary (Translated METAR)
KINJ
281835Z AUTO 01007G14KT 10SM SCT075 SCT095 37/21 A3010 RMK AO2 T03660206
KCPT
(23.6 nm NW from KINJ)
281835Z AUTO 04008G16KT 010V070 10SM FEW040 FEW055 SCT070 35/21 A3014 RMK AO2
TAF
No TAF information found within 50 nm of KINJ
  Airport Weather Conditions for KINJ

 Current Weather at INJ
92° F
Fair
South winds at 12.7 mph
INJ NOAA Radar

Pressure: 29.92 in
Humidity: 43%
Wind: from the South at 12.7 gusting to 19.6 MPH (11 gusting to 17 KT)
Dew Point: 66.6°F
Visibility: 10.00 mi


Airport Weather Forecast for KINJ

Translated METAR and TAF for KINJ
Translated METAR for KINJ (2316 UTC 30 July 2014)
found at http://aviationweather.gov/adds/metars/
 
METAR text: KINJ 302255Z AUTO 16011G17KT 10SM CLR 34/19 A2992 RMK AO2 T03360192
Conditions at: KINJ (HILLSBORO , TX, US) observed 2255 UTC 30 July 2014
Temperature: 33.6°C (92°F)
Dewpoint: 19.2°C (67°F) [RH = 43%]
Pressure (altimeter): 29.92 inches Hg (1013.3 mb)
Winds: from the SSE (160 degrees) at 13 MPH (11 knots; 5.7 m/s)
gusting to 20 MPH (17 knots; 8.8 m/s)
Visibility: 10 or more miles (16+ km)
Ceiling: at least 12,000 feet AGL
Clouds: sky clear below 12,000 feet AGL
Weather: automated observation with no human augmentation;
there may or may not be significant weather present at this time
Translated TAF for KINJ

There is no translated TAF available for this airport

Find All Airport Services Find A Hotel Find A Rental Car Find A Golf Course Find A Restaurant $100 Hamburger



FBO's on the Field
FBO Company Facility Photos Services Transportation Aviation Fuel Prices: Prices include tax
Catering Weather Repair Courtesy Rental Type 100LL JetA JetA+ MOGAS 8087
 
Add another FBO Facility Photos Catering Weather Repair Courtesy Rental Type 100LL JetA JetA+ MOGAS 8087
Services Transportation Aviation Fuel Prices: Prices include tax
There are no FBO's currently reporting fuel at INJ. List your FBO now


GlobalAir.com Airport Resource Center model-print
model-print
model-print
model-print